Time;durP1;ratioP1;P1;durP2;ratioP2;P2;SDS_P1;SDS_P2;PMS_P1;PMS_P2;Temp;Humidity;BMP_temperature;BMP_pressure;BME280_temperature;BME280_humidity;BME280_pressure;Samples;Min_cycle;Max_cycle;Signal;HPM_P1;HPM_P2
2023/03/31 00:02:00;;;;;;;0.50;0.50;;;;;;;0.96;100.00;98860.72;5044315;28;20064;-61
2023/03/31 00:04:26;;;;;;;0.50;0.50;;;;;;;0.94;100.00;98850.47;5044188;28;20022;-61
2023/03/31 00:06:53;;;;;;;0.50;0.50;;;;;;;0.96;100.00;98865.81;5045596;28;20040;-61
2023/03/31 00:09:20;;;;;;;0.50;0.50;;;;;;;0.91;100.00;98855.56;5045469;28;20026;-61
2023/03/31 00:11:49;;;;;;;0.50;0.50;;;;;;;0.95;100.00;98865.00;5045711;28;20096;-61
2023/03/31 00:14:16;;;;;;;0.50;0.50;;;;;;;0.95;100.00;98862.44;5045380;28;20445;-61
2023/03/31 00:16:42;;;;;;;0.50;0.50;;;;;;;0.94;100.00;98859.88;5045040;28;20494;-61
2023/03/31 00:19:16;;;;;;;0.50;0.50;;;;;;;0.95;100.00;98857.31;5045056;28;20025;-61
2023/03/31 00:21:50;;;;;;;0.50;0.50;;;;;;;0.95;100.00;98859.88;5045263;28;20077;-61
2023/03/31 00:24:16;;;;;;;0.60;0.60;;;;;;;0.95;100.00;98865.00;5045223;28;20367;-61
2023/03/31 00:26:43;;;;;;;0.50;0.50;;;;;;;0.95;100.00;98862.44;5045201;28;20033;-61
2023/03/31 00:29:10;;;;;;;0.50;0.50;;;;;;;0.97;100.00;98865.00;5044837;28;20025;-61
2023/03/31 00:31:37;;;;;;;0.50;0.50;;;;;;;0.96;100.00;98859.03;5045210;28;20048;-63
2023/03/31 00:34:04;;;;;;;0.50;0.50;;;;;;;0.94;100.00;98847.09;5045036;28;20021;-61
2023/03/31 00:36:30;;;;;;;0.50;0.50;;;;;;;0.91;100.00;98842.81;5045194;28;20021;-61
2023/03/31 00:38:58;;;;;;;0.50;0.50;;;;;;;0.97;100.00;98854.78;5045225;28;20030;-61
2023/03/31 00:41:25;;;;;;;0.50;0.50;;;;;;;0.97;100.00;98850.53;5044877;28;20509;-61
2023/03/31 00:44:00;;;;;;;0.50;0.50;;;;;;;0.98;100.00;98859.91;5044843;28;20075;-61
2023/03/31 00:46:32;;;;;;;0.50;0.50;;;;;;;0.98;100.00;98851.38;5045087;28;20082;-61
2023/03/31 00:48:57;;;;;;;0.50;0.50;;;;;;;0.95;100.00;98844.53;5044905;28;20096;-61
2023/03/31 00:51:27;;;;;;;0.50;0.50;;;;;;;0.97;100.00;98845.41;5045077;28;20083;-60
2023/03/31 00:53:58;;;;;;;0.40;0.40;;;;;;;0.98;100.00;98846.25;5044705;28;20055;-61
2023/03/31 00:56:27;;;;;;;0.60;0.60;;;;;;;1.01;100.00;98845.44;5045293;28;20063;-61
2023/03/31 00:59:00;;;;;;;0.50;0.50;;;;;;;0.99;100.00;98843.69;5044800;28;20060;-60
2023/03/31 01:01:25;;;;;;;0.50;0.50;;;;;;;0.98;100.00;98842.00;5044794;28;20022;-61
2023/03/31 01:03:52;;;;;;;0.50;0.50;;;;;;;0.96;100.00;98841.13;5044825;28;20032;-60
2023/03/31 01:06:22;;;;;;;0.50;0.50;;;;;;;0.97;100.00;98836.88;5043688;28;20043;-62
2023/03/31 01:08:50;;;;;;;0.50;0.50;;;;;;;0.98;100.00;98846.25;5044765;28;20041;-61
2023/03/31 01:11:19;;;;;;;0.50;0.50;;;;;;;0.99;100.00;98843.69;5044801;28;20462;-61
2023/03/31 01:13:48;;;;;;;0.50;0.50;;;;;;;0.99;100.00;98836.03;5044496;28;20060;-62
2023/03/31 01:16:14;;;;;;;0.50;0.50;;;;;;;0.98;100.00;98848.81;5044849;28;20378;-61
2023/03/31 01:18:45;;;;;;;0.50;0.50;;;;;;;0.98;100.00;98836.91;5044840;28;20037;-60
2023/03/31 01:21:29;;;;;;;0.50;0.50;;;;;;;1.01;100.00;98832.66;5044864;28;20026;-61
2023/03/31 01:24:16;;;;;;;0.50;0.50;;;;;;;0.98;100.00;98834.34;5044542;28;20032;-60
2023/03/31 01:27:12;;;;;;;0.50;0.50;;;;;;;0.97;100.00;98824.97;5044626;28;20026;-61
2023/03/31 01:29:43;;;;;;;0.50;0.50;;;;;;;0.98;100.00;98836.03;5002421;28;20035;-61
2023/03/31 01:32:09;;;;;;;0.50;0.50;;;;;;;0.99;100.00;98833.47;5002944;28;20113;-62
2023/03/31 01:34:56;;;;;;;0.40;0.40;;;;;;;0.97;100.00;98826.66;5002849;28;20030;-61
2023/03/31 01:37:36;;;;;;;0.50;0.50;;;;;;;0.98;100.00;98826.66;5002357;28;20026;-61
2023/03/31 01:40:16;;;;;;;0.50;0.50;;;;;;;1.00;100.00;98819.00;5002557;28;20034;-60
2023/03/31 01:42:51;;;;;;;0.50;0.50;;;;;;;0.98;100.00;98826.66;5006185;28;20049;-61
2023/03/31 01:46:09;;;;;;;0.50;0.50;;;;;;;0.98;100.00;98819.00;5006397;28;20054;-61
2023/03/31 01:48:53;;;;;;;0.50;0.50;;;;;;;0.97;100.00;98819.88;4910214;29;20096;-61
2023/03/31 01:51:31;;;;;;;0.50;0.50;;;;;;;0.96;100.00;98822.38;4910162;29;20045;-60
2023/03/31 01:54:32;;;;;;;0.50;0.50;;;;;;;0.97;100.00;98824.97;4910239;29;20365;-61
2023/03/31 01:57:02;;;;;;;0.50;0.50;;;;;;;0.97;100.00;98814.75;4907350;29;20100;-61
2023/03/31 01:59:40;;;;;;;0.50;0.50;;;;;;;0.97;100.00;98824.09;4909913;29;20044;-61
2023/03/31 02:02:08;;;;;;;0.50;0.50;;;;;;;0.91;100.00;98814.69;4910175;29;20039;-60
2023/03/31 02:04:42;;;;;;;0.50;0.50;;;;;;;0.99;100.00;98824.97;4909870;29;20561;-60
2023/03/31 02:07:17;;;;;;;0.50;0.50;;;;;;;0.97;100.00;98809.63;4938326;29;20134;-60
2023/03/31 02:09:48;;;;;;;0.50;0.50;;;;;;;1.02;100.00;98816.47;4932379;29;20028;-61
2023/03/31 02:12:15;;;;;;;0.50;0.50;;;;;;;1.02;100.00;98808.78;4947796;29;20040;-60
2023/03/31 02:14:46;;;;;;;0.50;0.50;;;;;;;1.03;100.00;98823.28;4947626;29;20064;-60
2023/03/31 02:17:17;;;;;;;0.60;0.60;;;;;;;1.02;100.00;98829.25;4947462;29;20056;-60
2023/03/31 02:19:46;;;;;;;0.60;0.60;;;;;;;1.01;100.00;98825.81;4947833;29;20031;-60
2023/03/31 02:22:14;;;;;;;0.50;0.50;;;;;;;1.04;100.00;98809.66;4947532;29;20047;-60
2023/03/31 02:24:41;;;;;;;0.50;0.50;;;;;;;1.04;100.00;98814.78;5000694;28;20033;-61
2023/03/31 02:27:24;;;;;;;0.50;0.50;;;;;;;1.05;100.00;98825.00;5047513;28;20097;-60
2023/03/31 02:29:50;;;;;;;0.50;0.50;;;;;;;1.01;100.00;98810.47;5047313;28;20071;-60
2023/03/31 02:32:34;;;;;;;0.50;0.50;;;;;;;1.01;100.00;98814.75;5047282;28;20052;-61
2023/03/31 02:35:00;;;;;;;0.50;0.50;;;;;;;0.99;100.00;98799.44;5047040;28;20036;-61
2023/03/31 02:37:28;;;;;;;0.50;0.50;;;;;;;0.97;100.00;98803.66;5047193;28;20022;-61
2023/03/31 02:39:56;;;;;;;0.50;0.50;;;;;;;0.94;100.00;98808.75;5047385;28;20021;-61
2023/03/31 02:42:21;;;;;;;0.50;0.50;;;;;;;0.96;100.00;98794.28;5047364;28;20029;-61
2023/03/31 02:44:47;;;;;;;0.50;0.50;;;;;;;0.97;100.00;98801.09;5046942;28;20148;-61
2023/03/31 02:47:15;;;;;;;0.50;0.50;;;;;;;0.97;100.00;98807.09;5047016;28;20064;-62
2023/03/31 02:49:44;;;;;;;0.50;0.50;;;;;;;0.97;100.00;98807.09;5046961;28;20036;-62
2023/03/31 02:52:46;;;;;;;0.50;0.50;;;;;;;0.95;100.00;98798.53;5046956;28;20029;-61
2023/03/31 02:55:15;;;;;;;0.50;0.50;;;;;;;0.94;100.00;98790.88;5046988;28;20030;-62
2023/03/31 02:58:14;;;;;;;0.50;0.50;;;;;;;0.95;100.00;98797.69;5046610;28;20026;-61
2023/03/31 03:00:58;;;;;;;0.50;0.50;;;;;;;0.93;100.00;98797.69;5046849;28;20031;-62
2023/03/31 03:03:51;;;;;;;0.50;0.50;;;;;;;0.92;100.00;98795.97;5046767;28;20040;-61
2023/03/31 03:06:26;;;;;;;0.50;0.50;;;;;;;0.90;100.00;98784.88;5046891;28;20167;-63
2023/03/31 03:09:17;;;;;;;0.50;0.50;;;;;;;0.91;100.00;98788.31;5046631;28;20022;-61
2023/03/31 03:11:42;;;;;;;0.50;0.50;;;;;;;0.89;100.00;98788.28;5046764;28;20432;-63
2023/03/31 03:14:23;;;;;;;0.50;0.50;;;;;;;0.89;100.00;98790.00;5046439;28;20022;-62
2023/03/31 03:17:04;;;;;;;0.50;0.50;;;;;;;0.89;100.00;98790.84;5046364;28;20053;-61
2023/03/31 03:19:30;;;;;;;0.50;0.50;;;;;;;0.89;100.00;98790.84;5046561;28;20021;-61
2023/03/31 03:21:56;;;;;;;0.50;0.50;;;;;;;0.91;100.00;98784.03;5046663;28;20029;-61
2023/03/31 03:24:22;;;;;;;0.43;0.43;;;;;;;0.91;100.00;98788.31;5046270;28;20112;-61
2023/03/31 03:26:47;;;;;;;0.50;0.50;;;;;;;0.90;100.00;98779.78;5045803;28;20104;-60
2023/03/31 03:29:13;;;;;;;0.50;0.50;;;;;;;0.79;100.00;98764.41;5044815;28;20036;-61
2023/03/31 03:31:41;;;;;;;0.50;0.50;;;;;;;0.89;100.00;98778.06;5045751;28;20021;-60
2023/03/31 03:34:08;;;;;;;0.50;0.50;;;;;;;0.91;100.00;98781.47;5046196;28;20196;-60
2023/03/31 03:36:35;;;;;;;0.50;0.50;;;;;;;0.88;100.00;98783.19;5046025;28;20017;-60
2023/03/31 03:39:01;;;;;;;0.50;0.50;;;;;;;0.89;100.00;98780.63;5046185;28;20112;-60
2023/03/31 03:41:26;;;;;;;0.50;0.50;;;;;;;0.90;100.00;98797.66;5046062;28;20026;-60
2023/03/31 03:43:51;;;;;;;0.50;0.50;;;;;;;0.89;100.00;98778.06;5045848;28;20021;-60
2023/03/31 03:46:17;;;;;;;0.50;0.50;;;;;;;0.89;100.00;98790.00;5046000;28;20025;-61
2023/03/31 03:48:42;;;;;;;0.50;0.50;;;;;;;0.88;100.00;98784.00;5045840;28;20053;-61
2023/03/31 03:51:08;;;;;;;0.50;0.50;;;;;;;0.89;100.00;98790.00;5045910;28;20043;-61
2023/03/31 03:53:33;;;;;;;0.50;0.50;;;;;;;0.88;100.00;98789.13;5045480;28;20032;-61
2023/03/31 03:55:58;;;;;;;0.50;0.50;;;;;;;0.89;100.00;98790.00;5044424;28;20056;-60
2023/03/31 03:58:24;;;;;;;0.57;0.57;;;;;;;0.88;100.00;98789.13;5045544;28;20017;-62
2023/03/31 04:00:50;;;;;;;0.40;0.40;;;;;;;0.85;100.00;98784.88;5045709;28;20077;-62
2023/03/31 04:03:15;;;;;;;0.50;0.50;;;;;;;0.84;100.00;98782.31;5045252;28;20033;-61
2023/03/31 04:05:41;;;;;;;0.50;0.50;;;;;;;0.86;100.00;98799.34;5045443;28;20040;-61
2023/03/31 04:08:07;;;;;;;0.50;0.50;;;;;;;0.85;100.00;98789.97;5045522;28;20025;-61
2023/03/31 04:10:34;;;;;;;0.50;0.50;;;;;;;0.81;100.00;98787.41;5045507;28;20025;-61
2023/03/31 04:12:59;;;;;;;0.50;0.50;;;;;;;0.83;100.00;98791.66;5045207;28;20045;-61
2023/03/31 04:15:25;;;;;;;0.50;0.50;;;;;;;0.83;100.00;98785.72;5045528;28;20403;-62
2023/03/31 04:17:53;;;;;;;0.50;0.50;;;;;;;0.85;100.00;98787.41;5045267;28;20056;-61
2023/03/31 04:20:19;;;;;;;0.50;0.50;;;;;;;0.84;100.00;98784.84;5045512;28;20017;-60
2023/03/31 04:22:49;;;;;;;0.50;0.50;;;;;;;0.83;100.00;98780.59;5045466;28;20108;-61
2023/03/31 04:25:15;;;;;;;0.50;0.50;;;;;;;0.80;100.00;98775.47;5045197;28;20017;-60
2023/03/31 04:27:45;;;;;;;0.50;0.50;;;;;;;0.81;100.00;98774.63;5045154;28;20373;-59
2023/03/31 04:30:21;;;;;;;0.50;0.50;;;;;;;0.80;100.00;98766.09;5045239;28;20032;-60
2023/03/31 04:32:51;;;;;;;0.50;0.50;;;;;;;0.71;100.00;98759.25;5045215;28;20053;-61
2023/03/31 04:35:19;;;;;;;0.50;0.50;;;;;;;0.78;100.00;98764.38;5043825;28;20078;-60
2023/03/31 04:37:48;;;;;;;0.50;0.50;;;;;;;0.83;100.00;98768.66;5045072;28;20079;-60
2023/03/31 04:40:15;;;;;;;0.50;0.50;;;;;;;0.82;100.00;98778.88;5045060;28;20025;-61
2023/03/31 04:42:41;;;;;;;0.50;0.50;;;;;;;0.81;100.00;98761.84;5044863;28;20026;-60
2023/03/31 04:45:06;;;;;;;0.50;0.50;;;;;;;0.83;100.00;98780.59;5044892;28;20075;-61
2023/03/31 04:47:32;;;;;;;0.40;0.40;;;;;;;0.78;100.00;98759.28;5043587;28;20044;-61
2023/03/31 04:49:57;;;;;;;0.50;0.50;;;;;;;0.80;100.00;98776.31;5044759;28;20053;-60
2023/03/31 04:52:23;;;;;;;0.50;0.50;;;;;;;0.80;100.00;98767.81;5044600;28;20024;-60
2023/03/31 04:54:48;;;;;;;0.50;0.50;;;;;;;0.81;100.00;98777.19;5044866;28;20108;-60
2023/03/31 04:57:14;;;;;;;0.50;0.50;;;;;;;0.81;100.00;98772.06;5044630;28;20033;-60
2023/03/31 04:59:39;;;;;;;0.50;0.50;;;;;;;0.79;100.00;98766.09;5044650;28;20030;-60
2023/03/31 05:02:05;;;;;;;0.50;0.50;;;;;;;0.80;100.00;98765.25;5044627;28;20110;-63
2023/03/31 05:04:30;;;;;;;0.50;0.50;;;;;;;0.80;100.00;98785.69;5044651;28;20032;-68
2023/03/31 05:06:55;;;;;;;0.40;0.40;;;;;;;0.76;100.00;98800.16;5044537;28;20021;-62
2023/03/31 05:09:21;;;;;;;0.50;0.50;;;;;;;0.77;100.00;98785.69;5044517;28;20026;-61
2023/03/31 05:11:47;;;;;;;0.50;0.50;;;;;;;0.78;100.00;98777.16;5044495;28;20101;-64
2023/03/31 05:14:12;;;;;;;0.50;0.50;;;;;;;0.77;100.00;98775.47;5044183;28;20025;-61
2023/03/31 05:16:37;;;;;;;0.40;0.40;;;;;;;0.76;100.00;98769.50;5046662;28;20105;-62
2023/03/31 05:19:03;;;;;;;0.45;0.45;;;;;;;0.79;100.00;98773.75;5048550;28;20032;-62
2023/03/31 05:21:30;;;;;;;0.50;0.50;;;;;;;0.78;100.00;98767.81;5048433;28;20044;-61
2023/03/31 05:23:56;;;;;;;0.47;0.47;;;;;;;0.76;100.00;98761.84;5048580;28;20025;-60
2023/03/31 05:26:24;;;;;;;0.50;0.50;;;;;;;0.71;100.00;98769.47;5048404;28;20024;-61
2023/03/31 05:28:51;;;;;;;0.50;0.50;;;;;;;0.73;100.00;98765.22;5047673;28;20018;-63
2023/03/31 05:31:17;;;;;;;0.50;0.50;;;;;;;0.70;100.00;98765.19;5048153;28;20032;-62
2023/03/31 05:33:42;;;;;;;0.50;0.50;;;;;;;0.73;100.00;98759.25;5048013;28;20093;-62
2023/03/31 05:36:14;;;;;;;0.50;0.50;;;;;;;0.74;100.00;98771.19;5047117;28;20028;-62
2023/03/31 05:38:40;;;;;;;0.70;0.70;;;;;;;0.76;100.00;98772.03;5047119;28;20032;-61
2023/03/31 05:41:08;;;;;;;0.50;0.50;;;;;;;0.78;100.00;98777.16;5048140;28;20110;-62
2023/03/31 05:43:34;;;;;;;0.50;0.50;;;;;;;0.79;100.00;98786.53;5047998;28;20034;-61
2023/03/31 05:45:59;;;;;;;0.40;0.40;;;;;;;0.78;100.00;98788.25;5048241;28;20057;-62
2023/03/31 05:48:25;;;;;;;0.50;0.50;;;;;;;0.74;100.00;98789.91;5048089;28;20100;-64
2023/03/31 05:50:50;;;;;;;0.45;0.45;;;;;;;0.73;100.00;98789.91;5047947;28;20033;-62
2023/03/31 05:53:15;;;;;;;0.50;0.50;;;;;;;0.69;100.00;98789.03;5048059;28;20033;-62
2023/03/31 05:55:41;;;;;;;0.43;0.43;;;;;;;0.72;100.00;98788.19;5047957;28;20021;-63
2023/03/31 05:58:08;;;;;;;0.50;0.50;;;;;;;0.69;100.00;98789.03;5047280;28;20025;-64
2023/03/31 06:00:35;;;;;;;0.50;0.50;;;;;;;0.69;100.00;98794.16;5047896;28;20493;-63
2023/03/31 06:03:00;;;;;;;0.50;0.50;;;;;;;0.68;100.00;98814.56;5047263;28;20059;-64
2023/03/31 06:05:26;;;;;;;0.50;0.50;;;;;;;0.69;100.00;98809.47;5047429;28;20021;-63
2023/03/31 06:07:52;;;;;;;0.50;0.50;;;;;;;0.68;100.00;98792.44;5047830;28;20022;-63
2023/03/31 06:10:18;;;;;;;0.50;0.50;;;;;;;0.66;100.00;98799.22;5046521;28;20021;-64
2023/03/31 06:12:43;;;;;;;0.50;0.50;;;;;;;0.73;100.00;98811.22;5047751;28;20036;-63
2023/03/31 06:15:09;;;;;;;0.50;0.50;;;;;;;0.76;100.00;98812.91;5047336;28;20501;-64
2023/03/31 06:17:34;;;;;;;0.50;0.50;;;;;;;0.68;100.00;98815.44;5047404;28;20128;-64
2023/03/31 06:20:00;;;;;;;0.50;0.50;;;;;;;0.64;100.00;98807.75;5047507;28;20022;-62
2023/03/31 06:22:26;;;;;;;0.50;0.50;;;;;;;0.65;100.00;98812.88;5047052;28;20076;-63
2023/03/31 06:24:51;;;;;;;0.50;0.50;;;;;;;0.66;100.00;98818.81;5046775;28;20100;-63
2023/03/31 06:27:16;;;;;;;0.50;0.50;;;;;;;0.68;100.00;98817.13;5046820;28;20481;-64
2023/03/31 06:29:42;;;;;;;0.50;0.50;;;;;;;0.67;100.00;98826.47;5046777;28;20033;-64
2023/03/31 06:32:07;;;;;;;0.50;0.50;;;;;;;0.65;100.00;98828.19;5046802;28;20029;-63
2023/03/31 06:34:33;;;;;;;0.50;0.50;;;;;;;0.64;100.00;98826.47;5046871;28;20088;-64
2023/03/31 06:36:58;;;;;;;0.50;0.50;;;;;;;0.63;100.00;98809.44;5046414;28;20018;-63
2023/03/31 06:39:23;;;;;;;0.50;0.50;;;;;;;0.61;100.00;98837.53;5046999;28;20029;-64
2023/03/31 06:41:49;;;;;;;0.50;0.50;;;;;;;0.61;100.00;98829.00;5047342;28;20028;-63
2023/03/31 06:44:15;;;;;;;0.50;0.50;;;;;;;0.60;100.00;98834.97;5046614;28;20022;-64
2023/03/31 06:46:41;;;;;;;0.43;0.43;;;;;;;0.59;100.00;98833.25;5046860;28;20021;-64
2023/03/31 06:49:07;;;;;;;0.50;0.50;;;;;;;0.60;100.00;98835.81;5046802;28;20029;-65
2023/03/31 06:51:32;;;;;;;0.50;0.50;;;;;;;0.61;100.00;98827.31;5047004;28;20026;-63
2023/03/31 06:53:57;;;;;;;0.50;0.50;;;;;;;0.60;100.00;98830.72;5044403;28;20029;-63
2023/03/31 06:56:23;;;;;;;0.50;0.50;;;;;;;0.62;100.00;98828.16;5045337;28;20044;-63
2023/03/31 06:58:48;;;;;;;0.50;0.50;;;;;;;0.61;100.00;98832.41;5046248;28;20036;-64
2023/03/31 07:01:14;;;;;;;0.50;0.50;;;;;;;0.64;100.00;98838.41;5046444;28;20025;-64
2023/03/31 07:03:39;;;;;;;0.50;0.50;;;;;;;0.61;100.00;98839.22;5046469;28;20090;-64
2023/03/31 07:06:05;;;;;;;0.50;0.50;;;;;;;0.64;100.00;98844.34;5047006;28;20022;-64
2023/03/31 07:08:31;;;;;;;0.50;0.50;;;;;;;0.62;100.00;98843.50;5046492;28;20159;-64
2023/03/31 07:10:59;;;;;;;0.50;0.50;;;;;;;0.60;100.00;98851.16;5046051;28;20021;-64
2023/03/31 07:13:25;;;;;;;0.50;0.50;;;;;;;0.61;100.00;98837.53;5045342;28;20021;-64
2023/03/31 07:15:52;;;;;;;0.47;0.47;;;;;;;0.62;100.00;98853.72;5046104;28;20025;-64
2023/03/31 07:18:18;;;;;;;0.50;0.50;;;;;;;0.60;100.00;98847.72;5046047;28;20077;-64
2023/03/31 07:20:47;;;;;;;0.50;0.50;;;;;;;0.54;100.00;98850.25;5045432;28;20033;-62
2023/03/31 07:23:12;;;;;;;0.50;0.50;;;;;;;0.58;100.00;98851.97;5045508;28;20501;-64
2023/03/31 07:25:38;;;;;;;0.50;0.50;;;;;;;0.59;100.00;98853.69;5045723;28;20021;-64
2023/03/31 07:28:05;;;;;;;0.50;0.50;;;;;;;0.62;100.00;98861.38;5045051;28;20025;-65
2023/03/31 07:30:31;;;;;;;0.50;0.50;;;;;;;0.61;100.00;98857.09;5045179;28;20014;-63
2023/03/31 07:32:56;;;;;;;0.50;0.50;;;;;;;0.61;100.00;98864.75;5045777;28;20031;-63
2023/03/31 07:35:22;;;;;;;0.50;0.50;;;;;;;0.58;100.00;98860.50;5045578;28;20025;-63
2023/03/31 07:37:48;;;;;;;0.50;0.50;;;;;;;0.58;100.00;98875.81;5045545;28;20029;-64
2023/03/31 07:40:23;;;;;;;0.47;0.47;;;;;;;0.58;100.00;98860.50;5044987;28;20013;-64
2023/03/31 07:42:50;;;;;;;0.50;0.50;;;;;;;0.57;100.00;98860.47;5046094;28;20035;-63
2023/03/31 07:45:18;;;;;;;0.50;0.50;;;;;;;0.57;100.00;98870.69;5045677;28;20041;-63
2023/03/31 07:47:45;;;;;;;0.50;0.50;;;;;;;0.57;100.00;98863.03;5045536;28;20090;-63
2023/03/31 07:50:11;;;;;;;0.50;0.50;;;;;;;0.56;100.00;98874.94;5045765;28;20101;-63
2023/03/31 07:52:37;;;;;;;0.45;0.45;;;;;;;0.58;100.00;98863.03;5045627;28;20382;-65
2023/03/31 07:55:03;;;;;;;0.50;0.50;;;;;;;0.69;100.00;98875.88;5045830;28;20044;-64
2023/03/31 07:57:29;;;;;;;0.50;0.50;;;;;;;0.60;100.00;98865.59;5045418;28;20025;-63
2023/03/31 07:59:55;;;;;;;0.50;0.50;;;;;;;0.57;100.00;98886.03;5045570;28;20018;-63
2023/03/31 08:02:20;;;;;;;0.50;0.50;;;;;;;0.53;100.00;98864.69;5045530;28;20028;-62
2023/03/31 08:04:46;;;;;;;0.50;0.50;;;;;;;0.51;100.00;98866.41;5045653;28;20084;-62
2023/03/31 08:07:13;;;;;;;0.50;0.50;;;;;;;0.54;100.00;98865.56;5045320;28;20045;-63
2023/03/31 08:09:40;;;;;;;0.50;0.50;;;;;;;0.56;100.00;98874.09;5044481;28;20021;-63
2023/03/31 08:12:06;;;;;;;0.50;0.50;;;;;;;0.56;100.00;98872.38;5044114;28;20058;-65
2023/03/31 08:14:31;;;;;;;0.43;0.43;;;;;;;0.56;100.00;98863.88;5044646;28;20109;-63
2023/03/31 08:16:59;;;;;;;0.40;0.40;;;;;;;0.54;100.00;98861.31;5045439;28;20052;-64
2023/03/31 08:19:24;;;;;;;0.47;0.47;;;;;;;0.57;100.00;98891.13;5045405;28;20053;-62
2023/03/31 08:21:51;;;;;;;0.50;0.50;;;;;;;0.55;100.00;98864.72;5045074;28;20021;-62
2023/03/31 08:24:17;;;;;;;0.40;0.40;;;;;;;0.74;100.00;98879.34;5044013;28;20029;-64
2023/03/31 08:26:42;;;;;;;0.50;0.50;;;;;;;0.64;100.00;98867.31;5044176;28;20086;-65
2023/03/31 08:29:07;;;;;;;0.50;0.50;;;;;;;0.93;100.00;98878.59;5044915;28;20553;-64
2023/03/31 08:31:33;;;;;;;0.47;0.47;;;;;;;0.72;100.00;98878.47;5044894;28;20022;-65
2023/03/31 08:33:58;;;;;;;0.50;0.50;;;;;;;0.77;100.00;98877.66;5044868;28;20124;-65
2023/03/31 08:36:26;;;;;;;0.50;0.50;;;;;;;0.68;100.00;98880.97;5045097;28;20025;-65
2023/03/31 08:38:52;;;;;;;0.50;0.50;;;;;;;0.58;100.00;98873.25;5044878;28;20021;-65
2023/03/31 08:41:33;;;;;;;0.50;0.50;;;;;;;0.66;100.00;98865.66;5044780;28;20026;-64
2023/03/31 08:44:02;;;;;;;0.43;0.43;;;;;;;0.72;100.00;98891.22;5044657;28;20048;-63
2023/03/31 08:46:32;;;;;;;0.50;0.50;;;;;;;0.69;100.00;98883.56;5044298;28;20036;-63
2023/03/31 08:48:58;;;;;;;0.50;0.50;;;;;;;0.69;100.00;98882.69;5043194;28;20444;-64
2023/03/31 08:51:28;;;;;;;0.50;0.50;;;;;;;0.66;100.00;98887.78;5044605;28;20030;-65
2023/03/31 08:54:07;;;;;;;0.50;0.50;;;;;;;0.58;100.00;98885.16;5043377;28;20036;-64
2023/03/31 08:56:42;;;;;;;0.50;0.50;;;;;;;0.58;100.00;98888.59;5043821;28;20021;-65
2023/03/31 08:59:23;;;;;;;0.50;0.50;;;;;;;0.54;100.00;98891.97;5043451;28;20025;-65
2023/03/31 09:02:13;;;;;;;0.60;0.60;;;;;;;0.51;100.00;98896.19;5042678;28;20514;-64
2023/03/31 09:05:13;;;;;;;0.50;0.50;;;;;;;0.51;100.00;98881.72;5042481;28;20056;-64
2023/03/31 09:08:15;;;;;;;0.50;0.50;;;;;;;0.51;100.00;98889.41;5038611;28;20048;-64
2023/03/31 09:10:45;;;;;;;;;;;;;;;0.52;100.00;98910.66;5031309;28;20049;-63
2023/03/31 09:13:13;;;;;;;0.50;0.50;;;;;;;0.69;100.00;98886.09;5043902;28;19915;-64
2023/03/31 09:15:53;;;;;;;0.50;0.50;;;;;;;0.61;100.00;98890.28;5044270;28;20033;-64
2023/03/31 09:18:34;;;;;;;0.50;0.50;;;;;;;0.54;100.00;98886.88;5044628;28;20054;-65
2023/03/31 09:21:12;;;;;;;0.50;0.50;;;;;;;0.60;100.00;98904.78;5025504;28;20033;-67
2023/03/31 09:23:43;;;;;;;0.50;0.50;;;;;;;0.66;100.00;98910.75;5044036;28;20025;-64
2023/03/31 09:26:26;;;;;;;0.60;0.60;;;;;;;0.67;100.00;98917.59;5044195;28;20056;-65
2023/03/31 09:28:54;;;;;;;0.50;0.50;;;;;;;0.68;100.00;98903.97;5044671;28;20032;-65
2023/03/31 09:31:21;;;;;;;0.50;0.50;;;;;;;0.59;100.00;98905.59;5044749;28;20030;-65
2023/03/31 09:33:50;;;;;;;0.50;0.50;;;;;;;0.66;100.00;98905.66;5044569;28;20025;-64
2023/03/31 09:36:17;;;;;;;0.50;0.50;;;;;;;0.79;100.00;98912.59;5044591;28;20092;-64
2023/03/31 09:38:44;;;;;;;0.50;0.50;;;;;;;0.72;100.00;98908.25;5043515;28;20074;-64
2023/03/31 09:41:12;;;;;;;0.50;0.50;;;;;;;0.67;100.00;98913.31;5043027;28;20107;-65
2023/03/31 09:43:39;;;;;;;0.50;0.50;;;;;;;0.73;100.00;98912.53;5044025;28;20099;-64
2023/03/31 09:46:28;;;;;;;0.50;0.50;;;;;;;0.68;100.00;98909.94;5044431;28;20027;-65
2023/03/31 09:49:01;;;;;;;0.55;0.55;;;;;;;0.58;100.00;98913.25;5044457;28;20025;-70
2023/03/31 09:51:31;;;;;;;0.50;0.50;;;;;;;0.57;100.00;98903.91;5044702;28;20029;-65
2023/03/31 09:54:02;;;;;;;0.50;0.50;;;;;;;0.62;100.00;98920.13;5044219;28;20057;-66
2023/03/31 09:56:47;;;;;;;0.60;0.60;;;;;;;0.55;100.00;98919.22;5044458;28;20044;-65
2023/03/31 09:59:22;;;;;;;0.47;0.47;;;;;;;0.59;100.00;98926.03;5043664;28;20028;-66
2023/03/31 10:01:52;;;;;;;0.50;0.50;;;;;;;0.58;100.00;98928.59;5043399;28;20022;-65
2023/03/31 10:04:27;;;;;;;0.50;0.50;;;;;;;0.55;100.00;98918.34;5047772;28;20021;-65
2023/03/31 10:06:54;;;;;;;0.50;0.50;;;;;;;0.58;100.00;98926.03;5047454;28;20025;-65
2023/03/31 10:09:24;;;;;;;0.52;0.52;;;;;;;0.60;100.00;98926.91;5045959;28;20030;-65
2023/03/31 10:12:03;;;;;;;0.50;0.50;;;;;;;0.63;100.00;98934.59;5047816;28;20025;-65
2023/03/31 10:14:49;;;;;;;0.50;0.50;;;;;;;0.61;100.00;98939.69;5047497;28;20030;-65
2023/03/31 10:17:19;;;;;;;0.50;0.50;;;;;;;0.59;100.00;98949.03;5046182;28;20049;-65
2023/03/31 10:19:58;;;;;;;0.47;0.47;;;;;;;0.63;100.00;98939.69;5047806;28;20037;-66
2023/03/31 10:22:30;;;;;;;0.60;0.60;;;;;;;0.62;100.00;98950.78;5047379;28;20029;-65
2023/03/31 10:25:10;;;;;;;0.60;0.60;;;;;;;0.62;100.00;98950.78;5046552;28;20045;-65
2023/03/31 10:27:40;;;;;;;0.50;0.50;;;;;;;0.58;100.00;98949.00;5047467;28;20076;-66
2023/03/31 10:30:09;;;;;;;0.50;0.50;;;;;;;0.60;100.00;98943.09;5046117;28;20029;-66
2023/03/31 10:32:41;;;;;;;0.50;0.50;;;;;;;0.57;100.00;98948.19;5045477;28;20075;-65
2023/03/31 10:35:35;;;;;;;0.50;0.50;;;;;;;0.58;100.00;98939.66;5045963;28;20078;-65
2023/03/31 10:38:09;;;;;;;0.50;0.50;;;;;;;0.59;100.00;98937.97;5041814;28;20037;-64
2023/03/31 10:40:35;;;;;;;0.50;0.50;;;;;;;0.59;100.00;98949.03;5046833;28;20013;-66
2023/03/31 10:43:20;;;;;;;0.50;0.50;;;;;;;0.57;100.00;98957.53;5047118;28;20029;-65
2023/03/31 10:45:50;;;;;;;0.50;0.50;;;;;;;0.56;100.00;98950.72;5047222;28;20021;-65
2023/03/31 10:48:38;;;;;;;0.50;0.50;;;;;;;0.65;100.00;98953.34;5047044;28;20033;-65
2023/03/31 10:51:17;;;;;;;0.50;0.50;;;;;;;0.63;100.00;98951.59;5046675;28;20017;-65
2023/03/31 10:53:51;;;;;;;0.50;0.50;;;;;;;0.61;100.00;98966.91;5047173;28;20469;-66
2023/03/31 10:56:44;;;;;;;0.50;0.50;;;;;;;0.66;100.00;98967.81;5046988;28;20109;-65
2023/03/31 10:59:29;;;;;;;0.50;0.50;;;;;;;0.72;100.00;98961.91;5046613;28;20034;-64
2023/03/31 11:02:26;;;;;;;0.50;0.50;;;;;;;0.69;100.00;98966.97;5046263;28;20041;-64
2023/03/31 11:05:02;;;;;;;0.50;0.50;;;;;;;0.63;100.00;98952.47;5046469;28;20018;-66
2023/03/31 11:08:05;;;;;;;0.50;0.50;;;;;;;0.79;100.00;98976.44;5045425;28;20021;-64
2023/03/31 11:10:52;;;;;;;0.50;0.50;;;;;;;0.83;100.00;98969.69;5004710;28;20034;-64
2023/03/31 11:13:32;;;;;;;0.50;0.50;;;;;;;0.78;100.00;98974.75;5003270;28;20039;-64
2023/03/31 11:16:19;;;;;;;0.50;0.50;;;;;;;0.91;100.00;98988.47;5005081;28;20090;-64
2023/03/31 11:18:54;;;;;;;0.50;0.50;;;;;;;0.92;100.00;98982.53;5004954;28;20054;-64
2023/03/31 11:21:49;;;;;;;0.50;0.50;;;;;;;0.97;100.00;98975.75;5005088;28;20027;-63
2023/03/31 11:24:15;;;;;;;0.43;0.43;;;;;;;1.02;100.00;98978.34;4987939;28;20479;-63
2023/03/31 11:26:52;;;;;;;0.50;0.50;;;;;;;1.00;100.00;98985.13;5004121;28;20495;-63
2023/03/31 11:29:23;;;;;;;0.50;0.50;;;;;;;0.99;100.00;98997.03;5003180;28;20042;-63
2023/03/31 11:31:53;;;;;;;0.60;0.60;;;;;;;0.98;100.00;98995.34;5004188;28;20558;-62
2023/03/31 11:34:37;;;;;;;0.50;0.50;;;;;;;0.97;100.00;98996.19;5004488;28;20098;-62
2023/03/31 11:37:14;;;;;;;0.50;0.50;;;;;;;1.01;100.00;98998.78;5004760;28;20080;-63
2023/03/31 11:39:49;;;;;;;0.50;0.50;;;;;;;1.04;100.00;98999.63;5004660;28;20089;-63
2023/03/31 11:42:26;;;;;;;0.50;0.50;;;;;;;1.10;100.00;99009.06;5004700;28;20046;-63
2023/03/31 11:45:04;;;;;;;0.40;0.40;;;;;;;1.00;100.00;99015.81;5030835;28;20048;-62
2023/03/31 11:47:36;;;;;;;0.40;0.40;;;;;;;1.02;100.00;99008.16;5045425;28;20025;-62
2023/03/31 11:50:08;;;;;;;0.50;0.50;;;;;;;1.07;100.00;99012.44;5043253;28;20052;-62
2023/03/31 11:52:39;;;;;;;0.40;0.40;;;;;;;0.95;100.00;99004.69;5045638;28;20021;-63